createdAt,value
2022-10-16T00:01:05.222Z,88.69
2022-10-16T00:06:07.025Z,87.80
2022-10-16T00:11:14.635Z,87.40
2022-10-16T00:16:17.590Z,87.62
2022-10-16T00:21:22.610Z,86.95
2022-10-16T00:26:24.728Z,86.79
2022-10-16T00:31:26.820Z,86.55
2022-10-16T00:36:28.794Z,85.75
2022-10-16T00:41:31.575Z,85.30
2022-10-16T00:46:40.134Z,84.53
2022-10-16T00:51:46.289Z,84.14
2022-10-16T00:56:48.567Z,84.10
2022-10-16T01:01:50.220Z,83.15
2022-10-16T01:07:25.775Z,83.18
2022-10-16T01:12:50.131Z,82.99
2022-10-16T01:18:09.602Z,82.93
2022-10-16T01:23:45.692Z,83.58
2022-10-16T01:29:01.937Z,83.76
2022-10-16T01:34:11.403Z,83.97
2022-10-16T01:39:15.351Z,84.12
2022-10-16T01:44:29.465Z,84.54
2022-10-16T01:49:35.077Z,84.48
2022-10-16T01:54:40.576Z,85.58
2022-10-16T01:59:50.020Z,85.68
2022-10-16T02:05:05.473Z,86.53
2022-10-16T02:10:07.526Z,87.39
2022-10-16T02:15:09.599Z,88.00
2022-10-16T02:20:11.649Z,88.67
2022-10-16T02:25:20.899Z,90.06
2022-10-16T02:30:42.034Z,90.27
2022-10-16T02:35:47.411Z,91.08
2022-10-16T02:40:49.614Z,91.35
2022-10-16T02:45:51.289Z,91.81
2022-10-16T02:50:52.860Z,92.30
2022-10-16T02:55:54.556Z,93.06
2022-10-16T03:00:56.760Z,93.44
2022-10-16T03:05:58.479Z,93.29
2022-10-16T03:11:00.032Z,94.26
2022-10-16T03:16:04.078Z,94.56
2022-10-16T03:21:05.651Z,94.27
2022-10-16T03:26:07.250Z,94.69
2022-10-16T03:31:09.250Z,95.13
2022-10-16T03:36:10.831Z,95.22
2022-10-16T03:41:12.515Z,95.87
2022-10-16T03:46:14.081Z,96.41
2022-10-16T03:51:15.691Z,96.58
2022-10-16T03:56:18.498Z,97.44
2022-10-16T04:01:20.109Z,97.47
2022-10-16T04:06:21.856Z,97.36
2022-10-16T04:11:23.821Z,97.86
2022-10-16T04:16:25.385Z,98.79
2022-10-16T04:21:27.499Z,98.52
2022-10-16T04:26:29.298Z,98.99
2022-10-16T04:31:31.020Z,99.65
2022-10-16T04:36:32.590Z,100.00
2022-10-16T04:41:34.203Z,100.00
2022-10-16T04:46:35.911Z,100.00
2022-10-16T04:51:37.524Z,100.00
2022-10-16T04:56:47.150Z,100.00
2022-10-16T05:01:49.014Z,100.00
2022-10-16T05:06:50.698Z,100.00
2022-10-16T05:11:52.373Z,100.00
2022-10-16T05:16:54.039Z,100.00
2022-10-16T05:21:55.737Z,100.00
2022-10-16T05:26:57.469Z,100.00
2022-10-16T05:31:59.163Z,100.00
2022-10-16T05:37:00.798Z,100.00
2022-10-16T05:42:02.392Z,100.00
2022-10-16T05:47:04.082Z,100.00
2022-10-16T05:52:05.972Z,100.00
2022-10-16T05:57:07.715Z,100.00
2022-10-16T06:02:14.160Z,100.00
2022-10-16T06:07:15.761Z,100.00
2022-10-16T06:12:17.667Z,100.00
2022-10-16T06:17:19.390Z,100.00
2022-10-16T06:22:21.348Z,100.00
2022-10-16T06:27:24.752Z,100.00
2022-10-16T06:32:26.508Z,100.00
2022-10-16T06:37:28.526Z,100.00
2022-10-16T06:42:30.446Z,100.00
2022-10-16T06:47:32.032Z,100.00
2022-10-16T06:52:34.675Z,100.00
2022-10-16T06:57:36.323Z,100.00
2022-10-16T07:02:37.986Z,100.00
2022-10-16T07:07:40.135Z,100.00
2022-10-16T07:12:42.021Z,100.00
2022-10-16T07:17:43.579Z,100.00
2022-10-16T07:22:45.478Z,100.00
2022-10-16T07:27:47.564Z,100.00
2022-10-16T07:32:49.126Z,100.00
2022-10-16T07:37:50.709Z,100.00
2022-10-16T07:42:52.382Z,100.00
2022-10-16T07:47:54.124Z,100.00
2022-10-16T07:52:55.851Z,100.00
2022-10-16T07:57:57.508Z,100.00
2022-10-16T08:03:02.102Z,100.00
2022-10-16T08:08:03.948Z,100.00
2022-10-16T08:18:07.277Z,100.00
2022-10-16T08:23:11.922Z,100.00
2022-10-16T08:28:14.262Z,100.00
2022-10-16T08:33:16.209Z,100.00
2022-10-16T08:38:17.952Z,100.00
2022-10-16T08:43:28.587Z,100.00
2022-10-16T08:48:50.535Z,100.00
2022-10-16T08:53:56.387Z,94.99
2022-10-16T08:59:02.335Z,89.24
2022-10-16T09:04:39.380Z,77.32
2022-10-16T09:10:15.078Z,73.42
2022-10-16T09:15:40.273Z,70.85
2022-10-16T09:20:47.587Z,69.26
2022-10-16T09:25:50.827Z,69.16
2022-10-16T09:30:54.536Z,68.98
2022-10-16T09:35:59.856Z,68.68
2022-10-16T09:41:04.570Z,63.56
2022-10-16T09:46:22.257Z,61.37
2022-10-16T09:51:28.267Z,61.66
2022-10-16T09:56:33.597Z,61.57
2022-10-16T10:01:41.723Z,63.42
2022-10-16T10:06:52.098Z,62.24
2022-10-16T10:11:59.087Z,61.21
2022-10-16T10:17:06.911Z,61.62
2022-10-16T10:22:33.588Z,63.33
2022-10-16T10:28:18.649Z,60.86
2022-10-16T10:33:29.957Z,60.67
2022-10-16T10:38:53.747Z,59.92
2022-10-16T10:44:05.763Z,59.15
2022-10-16T10:49:48.132Z,58.50
2022-10-16T10:55:25.123Z,57.89
2022-10-16T11:00:59.166Z,56.43
2022-10-16T11:06:08.315Z,58.19
2022-10-16T11:11:25.446Z,58.22
2022-10-16T11:16:36.241Z,57.88
2022-10-16T11:21:51.677Z,58.08
2022-10-16T11:26:57.584Z,56.16
2022-10-16T11:32:08.924Z,55.44
2022-10-16T11:37:20.138Z,55.24
2022-10-16T11:42:45.701Z,56.14
2022-10-16T11:48:00.239Z,57.19
2022-10-16T11:53:16.661Z,56.48
2022-10-16T11:58:21.129Z,54.60
2022-10-16T12:03:38.107Z,54.23
2022-10-16T12:08:42.132Z,54.42
2022-10-16T12:13:44.268Z,54.82
2022-10-16T12:18:47.563Z,54.37
2022-10-16T12:23:55.820Z,54.93
2022-10-16T12:29:23.294Z,57.64
2022-10-16T12:34:39.266Z,55.99
2022-10-16T12:39:41.624Z,54.67
2022-10-16T12:44:45.750Z,54.97
2022-10-16T12:49:57.413Z,56.75
2022-10-16T12:55:03.023Z,55.13
2022-10-16T13:00:41.979Z,54.95
2022-10-16T13:06:11.488Z,53.56
2022-10-16T13:11:21.117Z,53.89
2022-10-16T13:16:23.877Z,54.49
2022-10-16T13:21:53.652Z,54.71
2022-10-16T13:27:29.574Z,56.42
2022-10-16T13:32:31.887Z,56.92
2022-10-16T13:37:33.679Z,57.01
2022-10-16T13:42:37.089Z,58.40
2022-10-16T13:47:38.999Z,58.83
2022-10-16T13:52:40.739Z,58.35
2022-10-16T13:57:43.159Z,59.09
2022-10-16T14:02:45.308Z,60.40
2022-10-16T14:07:52.090Z,59.73
2022-10-16T14:13:03.995Z,59.53
2022-10-16T14:18:06.117Z,58.72
2022-10-16T14:23:29.501Z,59.66
2022-10-16T14:28:31.814Z,59.45
2022-10-16T14:33:35.204Z,60.22
2022-10-16T14:38:39.018Z,60.73
2022-10-16T14:43:43.059Z,60.18
2022-10-16T14:48:48.804Z,60.12
2022-10-16T14:53:50.828Z,60.75
2022-10-16T14:58:54.171Z,61.09
2022-10-16T15:03:56.220Z,62.01
2022-10-16T15:08:58.067Z,62.92
2022-10-16T15:13:59.741Z,63.13
2022-10-16T15:19:01.570Z,63.12
2022-10-16T15:24:03.357Z,62.36
2022-10-16T15:29:05.795Z,63.00
2022-10-16T15:34:09.484Z,61.50
2022-10-16T15:39:17.302Z,61.46
2022-10-16T15:44:19.272Z,62.13
2022-10-16T15:49:20.917Z,62.49
2022-10-16T15:54:23.793Z,62.85
2022-10-16T15:59:25.489Z,63.28
2022-10-16T16:04:44.383Z,63.32
2022-10-16T16:09:46.602Z,63.13
2022-10-16T16:14:50.148Z,64.47
2022-10-16T16:19:52.232Z,65.87
2022-10-16T16:24:53.838Z,67.01
2022-10-16T16:29:56.300Z,68.30
2022-10-16T16:34:57.990Z,69.50
2022-10-16T16:39:59.564Z,69.30
2022-10-16T16:45:02.500Z,69.23
2022-10-16T16:50:05.998Z,69.84
2022-10-16T16:55:14.872Z,69.77
2022-10-16T17:00:16.666Z,70.14
2022-10-16T17:05:19.590Z,70.82
2022-10-16T17:10:21.207Z,71.55
2022-10-16T17:15:23.017Z,71.91
2022-10-16T17:20:24.721Z,71.21
2022-10-16T17:25:27.612Z,71.40
2022-10-16T17:30:31.578Z,72.17
2022-10-16T17:35:48.901Z,72.57
2022-10-16T17:40:50.876Z,72.34
2022-10-16T17:45:52.745Z,72.10
2022-10-16T17:50:54.621Z,71.83
2022-10-16T17:56:04.059Z,72.05
2022-10-16T18:01:15.383Z,71.97
2022-10-16T18:06:22.837Z,71.89
2022-10-16T18:11:25.985Z,72.73
2022-10-16T18:16:30.265Z,72.60
2022-10-16T18:21:32.990Z,72.60
2022-10-16T18:26:34.883Z,73.70
2022-10-16T18:31:39.136Z,73.11
2022-10-16T18:36:44.067Z,73.49
2022-10-16T18:41:47.527Z,73.73
2022-10-16T18:46:49.679Z,73.82
2022-10-16T18:51:57.249Z,74.37
2022-10-16T18:56:59.588Z,74.73
2022-10-16T19:02:01.516Z,75.22
2022-10-16T19:07:03.229Z,75.40
2022-10-16T19:12:05.412Z,75.70
2022-10-16T19:17:07.492Z,76.66
2022-10-16T19:22:14.236Z,77.31
2022-10-16T19:27:15.966Z,78.03
2022-10-16T19:32:17.831Z,78.27
2022-10-16T19:37:25.781Z,79.61
2022-10-16T19:42:27.739Z,80.54
2022-10-16T19:47:29.536Z,81.19
2022-10-16T19:52:31.236Z,82.74
2022-10-16T20:02:37.796Z,83.98
2022-10-16T20:07:41.288Z,85.09
2022-10-16T20:12:43.318Z,84.86
2022-10-16T20:17:45.200Z,86.22
2022-10-16T20:22:46.812Z,85.62
2022-10-16T20:27:50.094Z,86.34
2022-10-16T20:32:51.852Z,86.45
2022-10-16T20:37:53.451Z,87.55
2022-10-16T20:42:55.134Z,87.08
2022-10-16T20:47:56.946Z,87.25
2022-10-16T20:52:59.747Z,88.05
2022-10-16T20:58:01.464Z,88.21
2022-10-16T21:03:03.157Z,88.01
2022-10-16T21:08:04.954Z,88.66
2022-10-16T21:13:06.596Z,89.02
2022-10-16T21:18:08.251Z,89.68
2022-10-16T21:23:11.932Z,90.00
2022-10-16T21:28:13.556Z,89.93
2022-10-16T21:33:15.182Z,90.90
2022-10-16T21:38:16.835Z,91.43
2022-10-16T21:43:18.457Z,92.04
2022-10-16T21:48:20.089Z,92.05
2022-10-16T21:53:22.637Z,92.58
2022-10-16T21:58:24.612Z,92.90
2022-10-16T22:03:26.214Z,93.77
2022-10-16T22:08:27.882Z,94.22
2022-10-16T22:13:29.486Z,94.69
2022-10-16T22:18:31.889Z,94.97
2022-10-16T22:23:33.788Z,95.54
2022-10-16T22:28:35.636Z,95.76
2022-10-16T22:33:37.788Z,95.92
2022-10-16T22:38:39.935Z,95.90
2022-10-16T22:43:44.936Z,96.08
2022-10-16T22:48:46.639Z,96.05
2022-10-16T22:53:49.728Z,96.52
2022-10-16T22:58:51.401Z,96.49
2022-10-16T23:03:53.143Z,96.53
2022-10-16T23:08:57.061Z,96.92
2022-10-16T23:13:58.848Z,97.45
2022-10-16T23:19:00.653Z,98.10
2022-10-16T23:24:02.393Z,97.93
2022-10-16T23:29:04.556Z,98.44
2022-10-16T23:34:06.266Z,98.32
2022-10-16T23:39:07.926Z,98.91
2022-10-16T23:44:09.624Z,99.30
2022-10-16T23:49:11.280Z,99.96
2022-10-16T23:54:12.978Z,99.74
2022-10-16T23:59:14.598Z,100.00
